Time;durP1;ratioP1;P1;durP2;ratioP2;P2;SDS_P1;SDS_P2;PMS_P1;PMS_P2;Temp;Humidity;BMP_temperature;BMP_pressure;BME280_temperature;BME280_humidity;BME280_pressure;Samples;Min_cycle;Max_cycle;Signal;HPM_P1;HPM_P2
2022/03/11 00:00:32;;;;;;;;;;;3.10;97.50;;;;;;5090381;28;19924;-72
2022/03/11 00:03:00;;;;;;;;;;;2.90;97.80;;;;;;5084267;28;19924;-71
2022/03/11 00:05:27;;;;;;;;;;;2.80;98.20;;;;;;5085226;28;19923;-71
2022/03/11 00:07:53;;;;;;;;;;;2.80;98.80;;;;;;5070677;28;19959;-72
2022/03/11 00:10:20;;;;;;;;;;;2.90;98.90;;;;;;5079320;28;19931;-71
2022/03/11 00:12:58;;;;;;;;;;;3.00;99.00;;;;;;5081384;28;19924;-72
2022/03/11 00:15:25;;;;;;;;;;;3.20;99.00;;;;;;5081751;28;20011;-72
2022/03/11 00:17:52;;;;;;;;;;;3.40;98.90;;;;;;5081831;28;20446;-72
2022/03/11 00:20:20;;;;;;;;;;;3.40;98.90;;;;;;5073654;28;20339;-72
2022/03/11 00:22:48;;;;;;;;;;;3.30;99.00;;;;;;5075815;28;20006;-72
2022/03/11 00:25:15;;;;;;;;;;;3.20;99.20;;;;;;5081445;28;19976;-72
2022/03/11 00:27:42;;;;;;;;;;;3.20;99.30;;;;;;5083500;28;20009;-72
2022/03/11 00:30:09;;;;;;;;;;;3.10;99.30;;;;;;5079898;28;20007;-72
2022/03/11 00:32:35;;;;;;;;;;;3.00;99.50;;;;;;5070246;28;20024;-72
2022/03/11 00:35:04;;;;;;;;;;;3.00;99.70;;;;;;5088486;28;19924;-71
2022/03/11 00:37:30;;;;;;;;;;;2.90;99.80;;;;;;5082219;28;20415;-72
2022/03/11 00:39:57;;;;;;;;;;;2.90;99.90;;;;;;5078749;28;20011;-72
2022/03/11 00:42:24;;;;;;;;;;;2.80;99.90;;;;;;5070722;28;19947;-71
2022/03/11 00:44:51;;;;;;;;;;;2.80;99.90;;;;;;5080499;28;19924;-71
2022/03/11 00:47:20;;;;;;;;;;;2.80;99.90;;;;;;5075346;28;19931;-72
2022/03/11 00:49:47;;;;;;;;;;;2.80;99.90;;;;;;5070348;28;19924;-71
2022/03/11 00:52:17;;;;;;;;;;;2.70;99.90;;;;;;5081143;28;20579;-71
2022/03/11 00:54:44;;;;;;;;;;;2.60;99.90;;;;;;5071409;28;20332;-72
2022/03/11 00:57:10;;;;;;;;;;;2.60;99.90;;;;;;5070925;28;20028;-72
2022/03/11 00:59:37;;;;;;;;;;;2.50;99.90;;;;;;5070964;28;19952;-71
2022/03/11 01:02:04;;;;;;;;;;;2.40;99.90;;;;;;5085516;28;19924;-72
2022/03/11 01:04:30;;;;;;;;;;;2.40;99.90;;;;;;5079294;28;19928;-71
2022/03/11 01:06:59;;;;;;;;;;;2.50;99.90;;;;;;5074111;28;20007;-71
2022/03/11 01:09:26;;;;;;;;;;;2.70;99.90;;;;;;5080055;28;19931;-71
2022/03/11 01:11:53;;;;;;;;;;;2.80;99.90;;;;;;5089268;28;20373;-71
2022/03/11 01:14:19;;;;;;;;;;;2.90;99.90;;;;;;5071307;28;20027;-71
2022/03/11 01:16:46;;;;;;;;;;;3.00;99.90;;;;;;5083219;28;19969;-71
2022/03/11 01:19:14;;;;;;;;;;;2.90;99.90;;;;;;5076035;28;19924;-72
2022/03/11 01:21:40;;;;;;;;;;;2.90;99.90;;;;;;5077238;28;19971;-72
2022/03/11 01:24:07;;;;;;;;;;;2.90;99.90;;;;;;5071193;28;20008;-71
2022/03/11 01:26:34;;;;;;;;;;;2.80;99.90;;;;;;5087071;28;19979;-71
2022/03/11 01:29:00;;;;;;;;;;;2.80;99.90;;;;;;5074431;28;19924;-71
2022/03/11 01:31:27;;;;;;;;;;;2.70;99.90;;;;;;5093403;28;20006;-72
2022/03/11 01:33:54;;;;;;;;;;;2.60;99.90;;;;;;5083173;28;19924;-71
2022/03/11 01:36:21;;;;;;;;;;;2.50;99.90;;;;;;5093612;28;19960;-71
2022/03/11 01:38:47;;;;;;;;;;;2.40;99.90;;;;;;5088836;28;20006;-71
2022/03/11 01:41:14;;;;;;;;;;;2.10;99.90;;;;;;5075183;28;19928;-72
2022/03/11 01:43:51;;;;;;;;;;;2.00;99.90;;;;;;5080782;28;19931;-72
2022/03/11 01:46:20;;;;;;;;;;;1.90;99.90;;;;;;5088865;28;19977;-72
2022/03/11 01:48:47;;;;;;;;;;;1.80;99.90;;;;;;5073296;28;19995;-72
2022/03/11 01:51:15;;;;;;;;;;;1.80;99.90;;;;;;5073823;28;20003;-70
2022/03/11 01:53:41;;;;;;;;;;;1.80;99.90;;;;;;5081186;28;20007;-70
2022/03/11 01:56:14;;;;;;;;;;;1.80;99.90;;;;;;5074959;28;20074;-71
2022/03/11 01:58:40;;;;;;;;;;;1.70;99.90;;;;;;5079500;28;19924;-70
2022/03/11 02:01:08;;;;;;;;;;;1.70;99.90;;;;;;5088930;28;20002;-71
2022/03/11 02:03:35;;;;;;;;;;;1.50;99.90;;;;;;5092883;28;20026;-72
2022/03/11 02:06:04;;;;;;;;;;;1.40;99.90;;;;;;5093109;28;19928;-71
2022/03/11 02:08:36;;;;;;;;;;;1.30;99.90;;;;;;5092386;28;19933;-71
2022/03/11 02:11:03;;;;;;;;;;;1.10;99.90;;;;;;5073448;28;20387;-71
2022/03/11 02:13:49;;;;;;;;;;;1.00;99.90;;;;;;5086517;28;19963;-71
2022/03/11 02:16:18;;;;;;;;;;;1.00;99.90;;;;;;5073755;28;19928;-71
2022/03/11 02:18:45;;;;;;;;;;;0.90;99.90;;;;;;5073486;28;19933;-71
2022/03/11 02:21:13;;;;;;;;;;;0.90;99.90;;;;;;5082984;28;20349;-71
2022/03/11 02:23:44;;;;;;;;;;;0.90;99.90;;;;;;5081621;28;20010;-71
2022/03/11 02:26:11;;;;;;;;;;;0.90;99.90;;;;;;5072765;28;19928;-71
2022/03/11 02:28:38;;;;;;;;;;;0.90;99.90;;;;;;5087569;28;19994;-72
2022/03/11 02:31:05;;;;;;;;;;;0.90;99.90;;;;;;5084266;28;20337;-71
2022/03/11 02:33:32;;;;;;;;;;;0.80;99.90;;;;;;5082355;28;19924;-71
2022/03/11 02:35:59;;;;;;;;;;;0.80;99.90;;;;;;5084426;28;19924;-71
2022/03/11 02:38:26;;;;;;;;;;;0.80;99.90;;;;;;5071355;28;20019;-71
2022/03/11 02:40:54;;;;;;;;;;;0.80;99.90;;;;;;5072336;28;19935;-69
2022/03/11 02:43:24;;;;;;;;;;;0.80;99.90;;;;;;5085209;28;20018;-69
2022/03/11 02:45:52;;;;;;;;;;;0.80;99.90;;;;;;5074535;28;19924;-69
2022/03/11 02:48:19;;;;;;;;;;;0.80;99.90;;;;;;5090103;28;19994;-70
2022/03/11 02:50:48;;;;;;;;;;;0.90;99.90;;;;;;5086527;28;19924;-71
2022/03/11 02:53:15;;;;;;;;;;;1.00;99.90;;;;;;5073239;28;19938;-71
2022/03/11 02:55:41;;;;;;;;;;;1.30;99.90;;;;;;5073196;28;20284;-71
2022/03/11 02:58:08;;;;;;;;;;;1.30;99.90;;;;;;5072660;28;19994;-70
2022/03/11 03:00:35;;;;;;;;;;;1.20;99.90;;;;;;5072915;28;19931;-71
2022/03/11 03:03:05;;;;;;;;;;;1.30;99.90;;;;;;5072884;28;19924;-70
2022/03/11 03:05:31;;;;;;;;;;;1.40;99.90;;;;;;5071816;28;19948;-70
2022/03/11 03:08:01;;;;;;;;;;;1.50;99.90;;;;;;5085126;28;19928;-70
2022/03/11 03:10:28;;;;;;;;;;;1.60;99.90;;;;;;5076662;28;19978;-70
2022/03/11 03:12:57;;;;;;;;;;;1.60;99.90;;;;;;5071725;28;19925;-71
2022/03/11 03:15:24;;;;;;;;;;;1.70;99.90;;;;;;5085808;28;20027;-71
2022/03/11 03:17:50;;;;;;;;;;;1.80;99.90;;;;;;5072605;28;19924;-71
2022/03/11 03:20:17;;;;;;;;;;;2.00;99.90;;;;;;5072161;28;19929;-70
2022/03/11 03:22:44;;;;;;;;;;;2.00;99.90;;;;;;5089064;28;20370;-71
2022/03/11 03:25:10;;;;;;;;;;;2.00;99.90;;;;;;5081746;28;20504;-71
2022/03/11 03:27:37;;;;;;;;;;;2.00;99.90;;;;;;5079554;28;20007;-71
2022/03/11 03:30:04;;;;;;;;;;;2.10;99.90;;;;;;5079437;28;19924;-71
2022/03/11 03:32:31;;;;;;;;;;;2.20;99.90;;;;;;5072324;28;19932;-71
2022/03/11 03:34:58;;;;;;;;;;;2.10;99.90;;;;;;5072604;28;19975;-72
2022/03/11 03:37:25;;;;;;;;;;;2.20;99.90;;;;;;5071373;28;20391;-71
2022/03/11 03:39:51;;;;;;;;;;;2.20;99.90;;;;;;5072513;28;19963;-71
2022/03/11 03:42:18;;;;;;;;;;;2.30;99.90;;;;;;5071482;28;19924;-69
2022/03/11 03:44:45;;;;;;;;;;;2.40;99.90;;;;;;5070875;28;20463;-70
2022/03/11 03:47:12;;;;;;;;;;;2.30;99.90;;;;;;5083798;28;20051;-70
2022/03/11 03:49:38;;;;;;;;;;;2.30;99.90;;;;;;5090729;28;20321;-70
2022/03/11 03:52:11;;;;;;;;;;;2.30;99.90;;;;;;5082352;28;19931;-70
2022/03/11 03:54:38;;;;;;;;;;;2.30;99.90;;;;;;5071510;28;19994;-71
2022/03/11 03:57:05;;;;;;;;;;;2.30;99.90;;;;;;5085548;28;19973;-71
2022/03/11 03:59:32;;;;;;;;;;;2.30;99.90;;;;;;5071685;28;19931;-71
2022/03/11 04:02:02;;;;;;;;;;;2.20;99.90;;;;;;5087226;28;19931;-71
2022/03/11 04:04:32;;;;;;;;;;;2.10;99.90;;;;;;5089920;28;19938;-70
2022/03/11 04:06:58;;;;;;;;;;;2.10;99.90;;;;;;5071552;28;20416;-71
2022/03/11 04:09:25;;;;;;;;;;;2.10;99.90;;;;;;5082807;28;20023;-71
2022/03/11 04:11:52;;;;;;;;;;;2.20;99.90;;;;;;5087966;28;19928;-71
2022/03/11 04:14:18;;;;;;;;;;;2.10;99.90;;;;;;5070764;28;20398;-71
2022/03/11 04:16:45;;;;;;;;;;;2.00;99.90;;;;;;5079677;28;19966;-70
2022/03/11 04:19:13;;;;;;;;;;;2.00;99.90;;;;;;5090087;28;19950;-70
2022/03/11 04:21:39;;;;;;;;;;;1.90;99.90;;;;;;5072589;28;19977;-70
2022/03/11 04:24:14;;;;;;;;;;;1.90;99.90;;;;;;5071293;28;20027;-70
2022/03/11 04:26:41;;;;;;;;;;;1.90;99.90;;;;;;5072034;28;19940;-70
2022/03/11 04:29:08;;;;;;;;;;;1.90;99.90;;;;;;5086413;28;19977;-70
2022/03/11 04:31:35;;;;;;;;;;;1.80;99.90;;;;;;5090048;28;19930;-71
2022/03/11 04:34:04;;;;;;;;;;;1.70;99.90;;;;;;5074144;28;20603;-71
2022/03/11 04:36:38;;;;;;;;;;;1.70;99.90;;;;;;5077874;28;19928;-71
2022/03/11 04:39:06;;;;;;;;;;;1.70;99.90;;;;;;5085417;28;19924;-70
2022/03/11 04:41:33;;;;;;;;;;;1.70;99.90;;;;;;5081617;28;20007;-70
2022/03/11 04:44:00;;;;;;;;;;;1.70;99.90;;;;;;5088983;28;19924;-70
2022/03/11 04:46:27;;;;;;;;;;;1.70;99.90;;;;;;5079041;28;19933;-70
2022/03/11 04:48:56;;;;;;;;;;;1.60;99.90;;;;;;5070534;28;20367;-70
2022/03/11 04:51:23;;;;;;;;;;;1.50;99.90;;;;;;5088725;28;19977;-70
2022/03/11 04:53:50;;;;;;;;;;;1.50;99.90;;;;;;5089419;28;19955;-70
2022/03/11 04:56:17;;;;;;;;;;;1.40;99.90;;;;;;5087782;28;20014;-70
2022/03/11 04:58:43;;;;;;;;;;;1.40;99.90;;;;;;5082437;28;20059;-70
2022/03/11 05:01:10;;;;;;;;;;;1.40;99.90;;;;;;5075019;28;19983;-70
2022/03/11 05:03:37;;;;;;;;;;;1.40;99.90;;;;;;5092456;28;19928;-69
2022/03/11 05:06:08;;;;;;;;;;;1.50;99.90;;;;;;5077190;28;20006;-71
2022/03/11 05:08:38;;;;;;;;;;;1.40;99.90;;;;;;5082417;28;19928;-70
2022/03/11 05:11:05;;;;;;;;;;;1.30;99.90;;;;;;5086980;28;19928;-70
2022/03/11 05:13:32;;;;;;;;;;;1.30;99.90;;;;;;5077196;28;19924;-70
2022/03/11 05:15:58;;;;;;;;;;;1.30;99.90;;;;;;5076966;28;19928;-69
2022/03/11 05:18:25;;;;;;;;;;;1.30;99.90;;;;;;5092204;28;19967;-70
2022/03/11 05:20:52;;;;;;;;;;;1.20;99.90;;;;;;5083297;28;20035;-70
2022/03/11 05:23:19;;;;;;;;;;;1.10;99.90;;;;;;5092132;28;20064;-70
2022/03/11 05:25:48;;;;;;;;;;;1.10;99.90;;;;;;5089894;28;19924;-69
2022/03/11 05:28:15;;;;;;;;;;;1.10;99.90;;;;;;5078553;28;19924;-70
2022/03/11 05:30:42;;;;;;;;;;;1.10;99.90;;;;;;5082343;28;20416;-70
2022/03/11 05:33:13;;;;;;;;;;;1.10;99.90;;;;;;5086027;28;20448;-70
2022/03/11 05:35:41;;;;;;;;;;;1.00;99.90;;;;;;5081802;28;19963;-70
2022/03/11 05:38:08;;;;;;;;;;;0.90;99.90;;;;;;5095540;28;19977;-70
2022/03/11 05:40:40;;;;;;;;;;;0.90;99.90;;;;;;5095825;28;19967;-70
2022/03/11 05:43:06;;;;;;;;;;;0.90;99.90;;;;;;5077732;28;19931;-70
2022/03/11 05:45:33;;;;;;;;;;;0.80;99.90;;;;;;5090673;28;20425;-70
2022/03/11 05:48:00;;;;;;;;;;;0.80;99.90;;;;;;5077422;28;19954;-70
2022/03/11 05:50:29;;;;;;;;;;;0.80;99.90;;;;;;5083292;28;19924;-70
2022/03/11 05:52:55;;;;;;;;;;;0.80;99.90;;;;;;5096140;28;20011;-70
2022/03/11 05:55:22;;;;;;;;;;;0.90;99.90;;;;;;5082056;28;19924;-70
2022/03/11 05:57:49;;;;;;;;;;;0.90;99.90;;;;;;5090328;28;20415;-70
2022/03/11 06:00:16;;;;;;;;;;;1.00;99.90;;;;;;5082965;28;20565;-70
2022/03/11 06:02:42;;;;;;;;;;;1.10;99.90;;;;;;5078473;28;20620;-70
2022/03/11 06:05:12;;;;;;;;;;;1.00;99.90;;;;;;5077565;28;19930;-70
2022/03/11 06:07:40;;;;;;;;;;;1.10;99.90;;;;;;5081422;28;19971;-70
2022/03/11 06:10:07;;;;;;;;;;;1.10;99.90;;;;;;5092516;28;19924;-69
2022/03/11 06:12:34;;;;;;;;;;;1.10;99.90;;;;;;5093776;28;20369;-70
2022/03/11 06:15:04;;;;;;;;;;;1.10;99.90;;;;;;5090310;28;20006;-69
2022/03/11 06:17:31;;;;;;;;;;;1.10;99.90;;;;;;5078240;28;19982;-69
2022/03/11 06:19:58;;;;;;;;;;;1.10;99.90;;;;;;5075862;28;19936;-69
2022/03/11 06:22:25;;;;;;;;;;;1.20;99.90;;;;;;5078967;28;19928;-69
2022/03/11 06:24:51;;;;;;;;;;;1.20;99.90;;;;;;5088437;28;19924;-68
2022/03/11 06:27:18;;;;;;;;;;;1.30;99.90;;;;;;5072688;28;19960;-69
2022/03/11 06:29:44;;;;;;;;;;;1.30;99.90;;;;;;5073061;28;19924;-70
2022/03/11 06:32:11;;;;;;;;;;;1.30;99.90;;;;;;5084209;28;20522;-70
2022/03/11 06:34:38;;;;;;;;;;;1.40;99.90;;;;;;5091352;28;20003;-70
2022/03/11 06:37:05;;;;;;;;;;;1.50;99.90;;;;;;5079261;28;20019;-70
2022/03/11 06:39:31;;;;;;;;;;;1.60;99.90;;;;;;5087539;28;19963;-70
2022/03/11 06:41:58;;;;;;;;;;;1.70;99.90;;;;;;5091176;28;19982;-69
2022/03/11 06:44:25;;;;;;;;;;;2.10;99.90;;;;;;5090764;28;19986;-69
2022/03/11 06:46:52;;;;;;;;;;;2.50;99.90;;;;;;5074255;28;19925;-69
2022/03/11 06:49:18;;;;;;;;;;;3.00;99.90;;;;;;5089453;28;19959;-71
2022/03/11 06:51:45;;;;;;;;;;;3.40;99.90;;;;;;5091658;28;19924;-71
2022/03/11 06:54:12;;;;;;;;;;;3.70;99.70;;;;;;5091760;28;19925;-70
2022/03/11 06:56:39;;;;;;;;;;;4.00;99.20;;;;;;5072043;28;20007;-71
2022/03/11 06:59:06;;;;;;;;;;;4.30;98.80;;;;;;5072215;28;20212;-71
2022/03/11 07:01:32;;;;;;;;;;;4.40;98.00;;;;;;5080890;28;19983;-69
2022/03/11 07:04:01;;;;;;;;;;;4.40;97.70;;;;;;5072782;28;19925;-70
2022/03/11 07:06:28;;;;;;;;;;;4.50;97.50;;;;;;5072939;28;19935;-70
2022/03/11 07:08:55;;;;;;;;;;;4.50;97.00;;;;;;5073169;28;20011;-70
2022/03/11 07:11:21;;;;;;;;;;;4.70;96.70;;;;;;5086737;28;19924;-70
2022/03/11 07:13:48;;;;;;;;;;;4.80;96.40;;;;;;5072657;28;20023;-70
2022/03/11 07:16:17;;;;;;;;;;;4.90;96.40;;;;;;5072444;28;19935;-70
2022/03/11 07:18:44;;;;;;;;;;;4.90;95.80;;;;;;5086536;28;19930;-71
2022/03/11 07:21:11;;;;;;;;;;;5.00;95.80;;;;;;5091134;28;20010;-71
2022/03/11 07:23:38;;;;;;;;;;;5.20;95.80;;;;;;5089207;28;19950;-71
2022/03/11 07:26:07;;;;;;;;;;;5.60;95.80;;;;;;5078771;28;19932;-70
2022/03/11 07:28:34;;;;;;;;;;;5.70;94.50;;;;;;5070786;28;20006;-70
2022/03/11 07:31:01;;;;;;;;;;;5.90;94.70;;;;;;5080927;28;20019;-70
2022/03/11 07:33:28;;;;;;;;;;;5.70;94.30;;;;;;5072982;28;19924;-70
2022/03/11 07:35:55;;;;;;;;;;;5.60;93.80;;;;;;5071372;28;19925;-70
2022/03/11 07:38:24;;;;;;;;;;;5.60;94.20;;;;;;5071461;28;19928;-71
2022/03/11 07:40:51;;;;;;;;;;;5.30;93.50;;;;;;5071862;28;20256;-71
2022/03/11 07:43:17;;;;;;;;;;;5.20;93.90;;;;;;5070817;28;19939;-71
2022/03/11 07:45:44;;;;;;;;;;;5.30;94.00;;;;;;5078404;28;20015;-71
2022/03/11 07:48:11;;;;;;;;;;;5.60;93.70;;;;;;5078492;28;19970;-71
2022/03/11 07:50:41;;;;;;;;;;;5.70;93.60;;;;;;5071476;28;19962;-72
2022/03/11 07:53:07;;;;;;;;;;;6.00;93.30;;;;;;5072031;28;19972;-71
2022/03/11 07:55:34;;;;;;;;;;;5.90;93.00;;;;;;5083176;28;19925;-72
2022/03/11 07:58:01;;;;;;;;;;;6.00;93.30;;;;;;5081925;28;19969;-71
2022/03/11 08:00:27;;;;;;;;;;;6.10;92.80;;;;;;5074643;28;19929;-71
2022/03/11 08:02:54;;;;;;;;;;;6.00;92.80;;;;;;5071220;28;19925;-72
2022/03/11 08:05:21;;;;;;;;;;;6.10;92.80;;;;;;5079522;28;20274;-71
2022/03/11 08:07:51;;;;;;;;;;;5.90;92.60;;;;;;5073598;28;20011;-72
2022/03/11 08:10:18;;;;;;;;;;;6.00;92.70;;;;;;5090484;28;20018;-72
2022/03/11 08:12:45;;;;;;;;;;;5.80;92.50;;;;;;5073977;28;19999;-72
2022/03/11 08:15:12;;;;;;;;;;;5.60;92.60;;;;;;5076701;28;19966;-72
2022/03/11 08:17:40;;;;;;;;;;;5.70;92.60;;;;;;5087244;28;19932;-72
2022/03/11 08:20:10;;;;;;;;;;;5.80;92.30;;;;;;5075400;28;19924;-71
2022/03/11 08:22:37;;;;;;;;;;;5.90;92.50;;;;;;5089521;28;20434;-72
2022/03/11 08:25:05;;;;;;;;;;;6.10;92.40;;;;;;5089764;28;20349;-71
2022/03/11 08:27:31;;;;;;;;;;;6.50;92.20;;;;;;5072828;28;19925;-71
2022/03/11 08:29:58;;;;;;;;;;;6.90;92.20;;;;;;5071911;28;20015;-71
2022/03/11 08:32:28;;;;;;;;;;;6.90;91.30;;;;;;5070609;28;19935;-72
2022/03/11 08:34:55;;;;;;;;;;;6.70;91.30;;;;;;5069889;28;19931;-72
2022/03/11 08:37:26;;;;;;;;;;;6.70;91.40;;;;;;5070349;28;20372;-72
2022/03/11 08:40:01;;;;;;;;;;;6.50;91.50;;;;;;5073523;28;19931;-72
2022/03/11 08:42:27;;;;;;;;;;;6.50;91.60;;;;;;5071182;28;19974;-72
2022/03/11 08:44:54;;;;;;;;;;;6.60;92.00;;;;;;5071147;28;19964;-72
2022/03/11 08:47:21;;;;;;;;;;;6.50;91.50;;;;;;5070103;28;19928;-71
2022/03/11 08:49:50;;;;;;;;;;;6.70;91.60;;;;;;5078094;28;20004;-71
2022/03/11 08:52:16;;;;;;;;;;;6.90;91.30;;;;;;5089567;28;20003;-71
2022/03/11 08:54:43;;;;;;;;;;;6.90;91.40;;;;;;5073581;28;20003;-72
2022/03/11 08:57:10;;;;;;;;;;;7.00;91.30;;;;;;5078923;28;20347;-72
2022/03/11 08:59:37;;;;;;;;;;;7.20;91.10;;;;;;5084580;28;20011;-72
2022/03/11 09:02:06;;;;;;;;;;;7.30;90.90;;;;;;5088535;28;19924;-71
2022/03/11 09:04:34;;;;;;;;;;;7.40;90.70;;;;;;5081743;28;19924;-72
2022/03/11 09:07:06;;;;;;;;;;;7.50;90.70;;;;;;5083491;28;19928;-72
2022/03/11 09:09:34;;;;;;;;;;;7.90;91.20;;;;;;5080226;28;19924;-72
2022/03/11 09:12:00;;;;;;;;;;;8.30;90.20;;;;;;5082028;28;19946;-72
2022/03/11 09:14:30;;;;;;;;;;;8.30;89.60;;;;;;5081047;28;19924;-72
2022/03/11 09:17:00;;;;;;;;;;;8.00;89.80;;;;;;5084861;28;19985;-72
2022/03/11 09:19:26;;;;;;;;;;;7.80;90.30;;;;;;5071005;28;20636;-72
2022/03/11 09:21:53;;;;;;;;;;;8.00;90.20;;;;;;5071176;28;20028;-72
2022/03/11 09:24:20;;;;;;;;;;;8.00;90.00;;;;;;5084997;28;19924;-72
2022/03/11 09:26:55;;;;;;;;;;;8.00;90.10;;;;;;5077922;28;19934;-72
2022/03/11 09:29:23;;;;;;;;;;;8.10;90.00;;;;;;5072768;28;20015;-72
2022/03/11 09:31:50;;;;;;;;;;;8.50;90.00;;;;;;5070441;28;19924;-72
2022/03/11 09:34:16;;;;;;;;;;;8.40;89.50;;;;;;5078929;28;19960;-72
2022/03/11 09:36:47;;;;;;;;;;;8.30;90.00;;;;;;5082639;28;19928;-72
2022/03/11 09:39:14;;;;;;;;;;;8.70;89.60;;;;;;5087224;28;20505;-71
2022/03/11 09:41:41;;;;;;;;;;;8.90;89.50;;;;;;5080946;28;19928;-72
2022/03/11 09:44:08;;;;;;;;;;;9.00;88.20;;;;;;5088030;28;19947;-72
2022/03/11 09:46:34;;;;;;;;;;;9.00;88.60;;;;;;5070771;28;19951;-72
2022/03/11 09:49:02;;;;;;;;;;;8.90;88.60;;;;;;5073935;28;19931;-72
2022/03/11 09:51:33;;;;;;;;;;;8.90;88.60;;;;;;5081258;28;19924;-71
2022/03/11 09:54:00;;;;;;;;;;;9.40;88.70;;;;;;5075573;28;20031;-72
2022/03/11 09:56:26;;;;;;;;;;;9.80;88.80;;;;;;5086690;28;20019;-72
2022/03/11 09:58:56;;;;;;;;;;;9.80;87.10;;;;;;5073790;28;19964;-72
2022/03/11 10:01:22;;;;;;;;;;;9.40;88.00;;;;;;5073879;28;19932;-72
2022/03/11 10:03:53;;;;;;;;;;;9.60;88.20;;;;;;5081538;28;20006;-72
2022/03/11 10:06:38;;;;;;;;;;;9.70;87.90;;;;;;5073756;28;20023;-72
2022/03/11 10:09:05;;;;;;;;;;;9.60;87.10;;;;;;5073819;28;19938;-72
2022/03/11 10:11:32;;;;;;;;;;;10.00;86.60;;;;;;5084377;28;19950;-72
2022/03/11 10:14:06;;;;;;;;;;;10.40;86.50;;;;;;5088065;28;20311;-72
2022/03/11 10:16:33;;;;;;;;;;;10.90;85.70;;;;;;5083587;28;19959;-72
2022/03/11 10:19:01;;;;;;;;;;;10.60;85.10;;;;;;5092185;28;19958;-72
2022/03/11 10:21:29;;;;;;;;;;;10.30;85.50;;;;;;5075666;28;19924;-73
2022/03/11 10:24:00;;;;;;;;;;;10.60;85.10;;;;;;5075839;28;20036;-72
2022/03/11 10:26:49;;;;;;;;;;;10.90;85.90;;;;;;5092216;28;20007;-70
2022/03/11 10:29:27;;;;;;;;;;;11.50;84.60;;;;;;5078842;28;20024;-70
2022/03/11 10:31:58;;;;;;;;;;;12.00;83.00;;;;;;5090033;28;19928;-70
2022/03/11 10:34:27;;;;;;;;;;;12.10;83.60;;;;;;5079692;28;19924;-70
2022/03/11 10:37:03;;;;;;;;;;;11.70;83.00;;;;;;5080678;28;20027;-70
2022/03/11 10:39:39;;;;;;;;;;;11.20;84.50;;;;;;5077319;28;20441;-72
2022/03/11 10:42:18;;;;;;;;;;;11.00;84.20;;;;;;5082231;28;19982;-72
2022/03/11 10:44:55;;;;;;;;;;;10.60;84.20;;;;;;5073973;28;20350;-72
2022/03/11 10:47:22;;;;;;;;;;;10.90;85.40;;;;;;5087378;28;19978;-72
2022/03/11 10:49:53;;;;;;;;;;;11.20;84.70;;;;;;5087129;28;19935;-70
2022/03/11 10:52:31;;;;;;;;;;;11.70;84.20;;;;;;5080977;28;19924;-72
2022/03/11 10:54:58;;;;;;;;;;;12.10;84.70;;;;;;5091938;28;19924;-71
2022/03/11 10:57:54;;;;;;;;;;;12.50;83.00;;;;;;5087405;28;19964;-71
2022/03/11 11:00:21;;;;;;;;;;;12.70;82.90;;;;;;5027549;28;20107;-70
2022/03/11 11:02:52;;;;;;;;;;;12.90;81.40;;;;;;5028455;28;19952;-71
2022/03/11 11:05:19;;;;;;;;;;;13.10;82.20;;;;;;5012038;28;19999;-71
2022/03/11 11:07:46;;;;;;;;;;;13.10;81.10;;;;;;5028665;28;19933;-70
2022/03/11 11:10:14;;;;;;;;;;;13.20;81.60;;;;;;5029796;28;20017;-71
2022/03/11 11:12:41;;;;;;;;;;;13.10;81.60;;;;;;5028964;28;20167;-72
2022/03/11 11:15:09;;;;;;;;;;;12.90;81.70;;;;;;5028408;28;19925;-70
2022/03/11 11:17:39;;;;;;;;;;;13.40;80.80;;;;;;5028753;28;20514;-71
2022/03/11 11:20:18;;;;;;;;;;;13.80;81.30;;;;;;5029424;28;20011;-71
2022/03/11 11:22:45;;;;;;;;;;;14.10;81.20;;;;;;5028420;28;20428;-71
2022/03/11 11:25:14;;;;;;;;;;;14.60;81.10;;;;;;5029890;28;19933;-70
2022/03/11 11:27:41;;;;;;;;;;;14.60;79.70;;;;;;5027645;28;20374;-71
2022/03/11 11:30:11;;;;;;;;;;;13.70;79.80;;;;;;5029115;28;19979;-71
2022/03/11 11:32:41;;;;;;;;;;;13.70;81.80;;;;;;5028354;28;19983;-71
2022/03/11 11:35:22;;;;;;;;;;;13.40;80.50;;;;;;5028834;28;19925;-71
2022/03/11 11:37:49;;;;;;;;;;;13.20;80.70;;;;;;5073906;28;19978;-71
2022/03/11 11:40:38;;;;;;;;;;;13.40;80.70;;;;;;5085850;28;19924;-71
2022/03/11 11:43:29;;;;;;;;;;;13.30;81.00;;;;;;5072244;28;19924;-71
2022/03/11 11:45:55;;;;;;;;;;;13.50;80.90;;;;;;5071574;28;20007;-71
2022/03/11 11:48:32;;;;;;;;;;;14.20;80.40;;;;;;5070455;28;20003;-72
2022/03/11 11:51:11;;;;;;;;;;;14.50;79.60;;;;;;5076356;28;19977;-71
2022/03/11 11:53:51;;;;;;;;;;;14.20;79.90;;;;;;5080426;28;19931;-71
2022/03/11 11:56:34;;;;;;;;;;;13.80;80.50;;;;;;5071562;28;20023;-71
2022/03/11 11:59:07;;;;;;;;;;;13.50;80.50;;;;;;5070698;28;19924;-71
2022/03/11 12:01:42;;;;;;;;;;;13.40;81.50;;;;;;5070177;28;19924;-71
2022/03/11 12:04:27;;;;;;;;;;;14.00;80.90;;;;;;5084846;28;20007;-72
2022/03/11 12:06:57;;;;;;;;;;;13.90;81.00;;;;;;5077604;28;20463;-72
2022/03/11 12:09:39;;;;;;;;;;;14.10;80.90;;;;;;5077749;28;19931;-71
2022/03/11 12:12:06;;;;;;;;;;;14.50;80.70;;;;;;5070450;28;20298;-71
2022/03/11 12:14:53;;;;;;;;;;;14.10;79.80;;;;;;5078868;28;19925;-71
2022/03/11 12:17:38;;;;;;;;;;;14.10;80.60;;;;;;5070166;28;19931;-71
2022/03/11 12:20:23;;;;;;;;;;;14.20;81.00;;;;;;5070784;28;19924;-71
2022/03/11 12:22:52;;;;;;;;;;;14.00;80.70;;;;;;5090138;28;19928;-72
2022/03/11 12:25:25;;;;;;;;;;;14.30;81.40;;;;;;5087585;28;19959;-72
2022/03/11 12:27:56;;;;;;;;;;;14.20;80.40;;;;;;5074852;28;19925;-72
2022/03/11 12:30:22;;;;;;;;;;;14.00;80.90;;;;;;5085094;28;19924;-72
2022/03/11 12:32:50;;;;;;;;;;;14.20;80.40;;;;;;5071438;28;19928;-72
2022/03/11 12:35:21;;;;;;;;;;;14.20;80.30;;;;;;5078849;28;19931;-72
2022/03/11 12:37:48;;;;;;;;;;;14.10;81.10;;;;;;5085622;28;19925;-72
2022/03/11 12:40:15;;;;;;;;;;;14.40;81.00;;;;;;5072059;28;20012;-72
2022/03/11 12:42:42;;;;;;;;;;;14.10;80.40;;;;;;5081855;28;19974;-72
2022/03/11 12:45:11;;;;;;;;;;;13.60;80.70;;;;;;5074224;28;19931;-72
2022/03/11 12:47:39;;;;;;;;;;;13.70;81.80;;;;;;5071016;28;19928;-73
2022/03/11 12:50:07;;;;;;;;;;;14.20;82.70;;;;;;5071156;28;19924;-70
2022/03/11 12:52:35;;;;;;;;;;;14.50;80.30;;;;;;5072559;28;20457;-70
2022/03/11 12:55:18;;;;;;;;;;;14.60;80.60;;;;;;5089166;28;19963;-71
2022/03/11 12:57:44;;;;;;;;;;;14.70;80.70;;;;;;5071034;28;20016;-70
2022/03/11 13:00:20;;;;;;;;;;;14.70;80.70;;;;;;5081943;28;19928;-71
2022/03/11 13:02:50;;;;;;;;;;;14.30;80.60;;;;;;5075637;28;19928;-71
2022/03/11 13:05:28;;;;;;;;;;;14.00;80.70;;;;;;5080079;28;19939;-71
2022/03/11 13:07:58;;;;;;;;;;;14.40;81.60;;;;;;5089103;28;20015;-72
2022/03/11 13:10:26;;;;;;;;;;;15.30;81.10;;;;;;5079665;28;20330;-71
2022/03/11 13:12:54;;;;;;;;;;;15.70;79.80;;;;;;5070754;28;19967;-71
2022/03/11 13:15:22;;;;;;;;;;;15.40;79.60;;;;;;5070975;28;20309;-71
2022/03/11 13:18:08;;;;;;;;;;;15.70;80.60;;;;;;5074582;28;19931;-71
2022/03/11 13:20:35;;;;;;;;;;;16.10;79.30;;;;;;5071706;28;20383;-71
2022/03/11 13:23:18;;;;;;;;;;;15.70;79.70;;;;;;5087181;28;19924;-71
2022/03/11 13:25:50;;;;;;;;;;;16.00;79.50;;;;;;5074237;28;19924;-71
2022/03/11 13:28:20;;;;;;;;;;;15.90;80.00;;;;;;5078324;28;20345;-70
2022/03/11 13:30:48;;;;;;;;;;;15.90;80.40;;;;;;5086448;28;19928;-70
2022/03/11 13:33:17;;;;;;;;;;;16.30;78.70;;;;;;5089175;28;19967;-70
2022/03/11 13:35:44;;;;;;;;;;;16.10;78.20;;;;;;5073928;28;20348;-71
2022/03/11 13:38:30;;;;;;;;;;;16.10;79.30;;;;;;5082350;28;20015;-71
2022/03/11 13:40:56;;;;;;;;;;;16.50;78.90;;;;;;5092055;28;20450;-71
2022/03/11 13:43:23;;;;;;;;;;;15.90;78.70;;;;;;5088565;28;19928;-71
2022/03/11 13:45:54;;;;;;;;;;;16.10;79.60;;;;;;5074184;28;20418;-70
2022/03/11 13:48:27;;;;;;;;;;;16.30;78.50;;;;;;5085864;28;19936;-71
2022/03/11 13:51:02;;;;;;;;;;;16.60;78.40;;;;;;5079874;28;20374;-71
2022/03/11 13:53:29;;;;;;;;;;;16.80;78.80;;;;;;5092826;28;19930;-71
2022/03/11 13:55:59;;;;;;;;;;;16.80;78.30;;;;;;5084514;28;19940;-70
2022/03/11 13:58:28;;;;;;;;;;;16.50;78.50;;;;;;5086980;28;20030;-71
2022/03/11 14:01:06;;;;;;;;;;;16.50;78.30;;;;;;5088990;28;20010;-71
2022/03/11 14:03:47;;;;;;;;;;;16.40;78.20;;;;;;5092478;28;19931;-69
2022/03/11 14:06:28;;;;;;;;;;;15.80;78.80;;;;;;5082613;28;19928;-70
2022/03/11 14:08:58;;;;;;;;;;;16.10;79.50;;;;;;5076063;28;19924;-70
2022/03/11 14:11:24;;;;;;;;;;;16.90;78.80;;;;;;5088717;28;19951;-71
2022/03/11 14:13:51;;;;;;;;;;;17.60;77.10;;;;;;5076654;28;19963;-70
2022/03/11 14:16:25;;;;;;;;;;;17.80;76.90;;;;;;5085992;28;19924;-70
2022/03/11 14:18:55;;;;;;;;;;;18.00;76.70;;;;;;5074467;28;20420;-70
2022/03/11 14:21:24;;;;;;;;;;;18.50;76.70;;;;;;5088663;28;19924;-71
2022/03/11 14:23:50;;;;;;;;;;;18.00;75.10;;;;;;5073637;28;19975;-71
2022/03/11 14:26:21;;;;;;;;;;;17.90;76.30;;;;;;5073832;28;20394;-70
2022/03/11 14:28:48;;;;;;;;;;;17.50;76.40;;;;;;5072988;28;20011;-70
2022/03/11 14:31:15;;;;;;;;;;;17.20;77.10;;;;;;5073706;28;19955;-70
2022/03/11 14:33:41;;;;;;;;;;;16.80;77.00;;;;;;5073371;28;19924;-71
2022/03/11 14:36:08;;;;;;;;;;;17.20;77.50;;;;;;5084611;28;19924;-71